Time;durP1;ratioP1;P1;durP2;ratioP2;P2;SDS_P1;SDS_P2;PMS_P1;PMS_P2;Temp;Humidity;BMP_temperature;BMP_pressure;BME280_temperature;BME280_humidity;BME280_pressure;Samples;Min_cycle;Max_cycle;Signal;HPM_P1;HPM_P2
2022/11/29 00:01:31;;;;;;;53.03;16.20;;;;;;;4.71;59.43;100333.50;4405958;32;20099;-95
2022/11/29 00:03:57;;;;;;;49.92;16.37;;;;;;;4.69;59.44;100332.66;4421594;32;20453;-94
2022/11/29 00:06:26;;;;;;;55.63;17.48;;;;;;;4.71;59.44;100336.09;4409677;32;20102;-95
2022/11/29 00:08:51;;;;;;;56.17;17.37;;;;;;;4.63;59.43;100334.38;4406601;32;20110;-93
2022/11/29 00:14:07;;;;;;;50.40;17.42;;;;;;;4.78;59.44;100325.81;4416888;32;20111;-95
2022/11/29 00:16:32;;;;;;;49.65;16.15;;;;;;;4.74;59.45;100321.50;4429023;32;20085;-94
2022/11/29 00:18:58;;;;;;;53.35;16.15;;;;;;;4.65;59.44;100321.47;4430937;32;20132;-94
2022/11/29 00:21:23;;;;;;;73.37;18.30;;;;;;;4.61;59.44;100318.03;4390000;32;20405;-93
2022/11/29 00:23:49;;;;;;;61.33;16.77;;;;;;;4.58;59.43;100320.62;4432394;32;20116;-94
2022/11/29 00:26:16;;;;;;;64.68;17.37;;;;;;;4.57;59.43;100316.31;4421757;32;20105;-94
2022/11/29 00:28:42;;;;;;;51.35;16.40;;;;;;;4.46;59.42;100312.84;4417350;32;20664;-96
2022/11/29 00:31:24;;;;;;;59.33;18.08;;;;;;;4.58;59.43;100312.88;4410890;32;20148;-95
2022/11/29 00:33:50;;;;;;;62.05;17.50;;;;;;;4.58;59.43;100307.72;4419730;32;20176;-94
2022/11/29 00:36:16;;;;;;;65.22;17.15;;;;;;;4.44;59.43;100305.97;4393132;32;20473;-94
2022/11/29 00:38:42;;;;;;;62.03;19.12;;;;;;;4.46;59.42;100305.13;4406074;32;20188;-94
2022/11/29 00:41:07;;;;;;;54.85;17.83;;;;;;;4.64;59.44;100304.28;4393300;32;20106;-94
2022/11/29 00:43:33;;;;;;;51.22;16.20;;;;;;;4.66;59.44;100307.72;4419295;32;20135;-95
2022/11/29 00:45:59;;;;;;;63.22;17.80;;;;;;;4.61;59.44;100309.44;4403771;32;20093;-96
2022/11/29 00:48:25;;;;;;;78.32;18.27;;;;;;;4.81;59.45;100302.59;4405914;32;20129;-94
2022/11/29 00:50:50;;;;;;;56.10;16.65;;;;;;;4.66;59.44;100304.28;4395604;32;20106;-94
2022/11/29 00:53:17;;;;;;;63.78;18.42;;;;;;;4.61;59.44;100304.28;4406113;32;20120;-95
2022/11/29 00:55:44;;;;;;;61.28;17.40;;;;;;;4.74;59.45;100303.44;4393595;32;20121;-95
2022/11/29 00:58:09;;;;;;;48.47;17.08;;;;;;;4.57;59.43;100306.00;4416809;32;20439;-94
2022/11/29 01:00:35;;;;;;;62.47;17.67;;;;;;;4.62;59.43;100296.56;4382578;32;20125;-94
2022/11/29 01:03:04;;;;;;;59.42;16.40;;;;;;;4.53;59.43;100296.56;4389765;32;20097;-96
2022/11/29 01:05:30;;;;;;;61.88;16.35;;;;;;;4.66;59.44;100293.97;4417255;32;20139;-95
2022/11/29 01:07:56;;;;;;;56.78;16.92;;;;;;;4.34;59.41;100301.69;4389483;32;20106;-93
2022/11/29 01:10:21;;;;;;;62.38;18.65;;;;;;;4.46;59.42;100293.94;4387552;32;20094;-94
2022/11/29 01:12:47;;;;;;;66.37;17.00;;;;;;;4.60;59.44;100293.12;4389978;32;20116;-92
2022/11/29 01:15:12;;;;;;;57.22;17.02;;;;;;;4.75;59.44;100292.28;4392538;32;20096;-95
2022/11/29 01:17:38;;;;;;;55.60;16.65;;;;;;;4.68;59.44;100289.69;4392803;32;20062;-95
2022/11/29 01:20:05;;;;;;;56.97;17.48;;;;;;;4.66;59.44;100289.69;4392628;32;20167;-96
2022/11/29 01:22:30;;;;;;;49.42;17.10;;;;;;;4.55;59.43;100291.41;4392150;32;20204;-94
2022/11/29 01:24:56;;;;;;;55.22;16.90;;;;;;;4.57;59.43;100295.69;4389550;32;20229;-94
2022/11/29 01:27:21;;;;;;;57.58;19.00;;;;;;;4.59;59.43;100288.81;4388478;32;20110;-94
2022/11/29 01:29:47;;;;;;;49.00;15.70;;;;;;;4.68;59.44;100300.00;4389590;32;20102;-93
2022/11/29 01:32:12;;;;;;;60.53;18.50;;;;;;;4.65;59.44;100294.84;4389796;32;20123;-93
2022/11/29 01:34:38;;;;;;;55.67;15.40;;;;;;;4.73;59.44;100298.25;4392895;32;20184;-93
2022/11/29 01:37:03;;;;;;;60.22;16.65;;;;;;;4.64;59.44;100291.41;4387711;32;20139;-93
2022/11/29 01:39:30;;;;;;;54.25;17.60;;;;;;;4.46;59.42;100292.22;4387459;32;20105;-93
2022/11/29 01:41:55;;;;;;;52.50;15.93;;;;;;;4.31;59.42;100281.91;4388317;32;25099;-94
2022/11/29 01:44:20;;;;;;;55.58;15.98;;;;;;;4.37;59.43;100284.50;4387721;32;20106;-94
2022/11/29 01:46:46;;;;;;;59.70;15.23;;;;;;;4.42;59.43;100287.94;4405408;32;20128;-93
2022/11/29 01:49:17;;;;;;;51.90;17.40;;;;;;;4.44;59.42;100278.47;4397209;32;20144;-93
2022/11/29 01:51:50;;;;;;;50.78;15.85;;;;;;;4.21;59.41;100291.31;4388162;32;20081;-93
2022/11/29 01:54:16;;;;;;;47.50;15.93;;;;;;;4.49;59.44;100278.47;4400461;32;20089;-93
2022/11/29 01:56:41;;;;;;;52.22;15.90;;;;;;;4.54;59.43;100279.38;4387479;32;24956;-92
2022/11/29 01:59:09;;;;;;;61.85;16.30;;;;;;;4.52;59.43;100281.94;4413318;32;20098;-95
2022/11/29 02:01:35;;;;;;;37.15;14.07;;;;;;;4.51;59.43;100279.38;4388701;32;20206;-93
2022/11/29 02:04:00;;;;;;;47.92;13.65;;;;;;;4.45;59.42;100295.66;4396575;32;28759;-93
2022/11/29 02:06:26;;;;;;;43.42;17.00;;;;;;;4.32;59.42;100292.22;4407478;32;20247;-94
2022/11/29 02:08:51;;;;;;;49.80;15.13;;;;;;;4.30;59.42;100286.22;4387421;32;20721;-94
2022/11/29 02:11:23;;;;;;;44.45;14.87;;;;;;;4.41;59.42;100288.78;4387652;32;29491;-93
2022/11/29 02:14:34;;;;;;;45.90;15.85;;;;;;;4.38;59.42;100293.09;4413307;32;20132;-92
2022/11/29 02:17:06;;;;;;;48.63;14.55;;;;;;;4.51;59.43;100290.53;4414689;32;20128;-93
2022/11/29 02:19:50;;;;;;;47.08;14.07;;;;;;;4.49;59.44;100291.37;4398067;32;20110;-96
2022/11/29 02:22:18;;;;;;;47.22;13.93;;;;;;;4.43;59.43;100297.38;4399345;32;20050;-94
2022/11/29 02:25:11;;;;;;;46.78;13.82;;;;;;;4.14;59.41;100299.91;4418884;32;20116;-94
2022/11/29 02:27:49;;;;;;;52.72;14.25;;;;;;;4.41;59.42;100293.94;4403961;32;20094;-94
2022/11/29 02:30:50;;;;;;;43.53;14.07;;;;;;;4.26;59.41;100297.38;4399545;32;20139;-92
2022/11/29 02:33:25;;;;;;;43.20;14.60;;;;;;;4.29;59.42;100304.25;4388909;32;20462;-92
2022/11/29 02:36:21;;;;;;;38.95;13.48;;;;;;;4.13;59.41;100307.63;4398162;32;20130;-92
2022/11/29 02:38:46;;;;;;;35.50;13.82;;;;;;;4.24;59.41;100313.66;4405381;32;20102;-93
2022/11/29 02:41:32;;;;;;;40.12;12.90;;;;;;;4.15;59.41;100311.94;4411530;32;20133;-93
2022/11/29 02:44:08;;;;;;;34.90;13.88;;;;;;;4.11;59.40;100307.63;4395903;32;20141;-94
2022/11/29 02:46:48;;;;;;;44.10;14.87;;;;;;;4.17;59.41;100309.34;4398550;32;20078;-93
2022/11/29 02:49:22;;;;;;;40.88;15.15;;;;;;;4.12;59.40;100305.91;4398086;32;20135;-92
2022/11/29 02:51:54;;;;;;;37.88;13.60;;;;;;;4.26;59.41;100304.25;4411728;32;20166;-92
2022/11/29 02:54:32;;;;;;;40.80;13.07;;;;;;;4.35;59.42;100301.69;4385954;32;20098;-92
2022/11/29 02:57:06;;;;;;;42.58;13.35;;;;;;;4.17;59.41;100309.34;4410656;32;20451;-92
2022/11/29 02:59:40;;;;;;;38.85;14.02;;;;;;;4.36;59.42;100299.97;4387529;32;20164;-92
2022/11/29 03:02:31;;;;;;;37.30;13.20;;;;;;;4.37;59.42;100296.53;4408965;32;20070;-93
2022/11/29 03:05:17;;;;;;;44.40;14.02;;;;;;;4.47;59.42;100293.94;4410067;32;20502;-92
2022/11/29 03:08:05;;;;;;;38.70;13.48;;;;;;;4.44;59.43;100301.69;4397767;32;20093;-93
2022/11/29 03:10:56;;;;;;;38.10;13.50;;;;;;;4.40;59.42;100297.38;4400177;32;20134;-92
2022/11/29 03:14:02;;;;;;;40.85;14.82;;;;;;;4.43;59.43;100294.81;4412883;32;20086;-92
2022/11/29 03:16:51;;;;;;;37.13;13.50;;;;;;;4.40;59.42;100302.53;4386572;32;20113;-93
2022/11/29 03:19:27;;;;;;;30.77;12.98;;;;;;;4.37;59.43;100305.13;4400559;32;20076;-92
2022/11/29 03:22:34;;;;;;;36.20;12.77;;;;;;;4.41;59.42;100308.56;4400973;32;20101;-94
2022/11/29 03:25:05;;;;;;;35.78;13.00;;;;;;;4.31;59.42;100313.69;4402299;32;20216;-94
2022/11/29 03:27:36;;;;;;;33.95;12.40;;;;;;;4.33;59.41;100305.97;4401019;32;20112;-94
2022/11/29 03:30:05;;;;;;;36.58;12.27;;;;;;;4.37;59.42;100299.97;4412897;32;20070;-94
2022/11/29 03:32:42;;;;;;;31.77;12.37;;;;;;;4.44;59.43;100306.84;4412976;32;20519;-94
2022/11/29 03:35:16;;;;;;;29.48;12.15;;;;;;;4.58;59.44;100309.44;4427100;32;20105;-95
2022/11/29 03:38:08;;;;;;;30.35;12.23;;;;;;;4.50;59.43;100306.88;4400102;32;20466;-94
2022/11/29 03:41:26;;;;;;;30.33;11.35;;;;;;;4.47;59.42;100314.56;4375930;32;20175;-94
2022/11/29 03:44:16;;;;;;;27.08;10.82;;;;;;;4.56;59.43;100306.88;4366318;32;20205;-94
2022/11/29 03:46:51;;;;;;;31.73;11.45;;;;;;;4.49;59.42;100307.69;4389243;32;20170;-95
2022/11/29 03:49:25;;;;;;;32.88;12.37;;;;;;;4.51;59.43;100315.47;4406358;32;20082;-94
2022/11/29 03:52:16;;;;;;;28.90;11.95;;;;;;;4.52;59.43;100317.19;4400582;32;20115;-94
2022/11/29 03:54:48;;;;;;;32.58;12.07;;;;;;;4.40;59.42;100322.28;4415759;32;20136;-94
2022/11/29 03:57:15;;;;;;;26.42;10.95;;;;;;;4.39;59.42;100324.03;4412878;32;20106;-94
2022/11/29 03:59:53;;;;;;;33.65;11.30;;;;;;;4.31;59.41;100313.69;4387762;32;21190;-94
2022/11/29 04:02:45;;;;;;;30.50;11.93;;;;;;;4.33;59.41;100321.44;4412612;32;20085;-94
2022/11/29 04:05:16;;;;;;;30.77;11.63;;;;;;;4.38;59.42;100319.72;4426581;32;20139;-94
2022/11/29 04:07:52;;;;;;;29.60;11.52;;;;;;;4.27;59.42;100327.44;4413072;32;20466;-96
2022/11/29 04:10:41;;;;;;;28.48;11.40;;;;;;;4.22;59.41;100333.41;4385717;32;20387;-93
2022/11/29 04:13:06;;;;;;;31.00;12.20;;;;;;;4.30;59.42;100332.59;4397392;32;20090;-94
2022/11/29 04:16:19;;;;;;;28.40;11.10;;;;;;;4.17;59.41;100330.81;4412890;32;20286;-93
2022/11/29 04:19:11;;;;;;;26.70;12.43;;;;;;;4.15;59.41;100334.25;4391150;32;20669;-93
2022/11/29 04:21:58;;;;;;;27.15;11.18;;;;;;;4.28;59.42;100331.72;4412614;32;20098;-95
2022/11/29 04:24:45;;;;;;;27.15;11.60;;;;;;;4.24;59.41;100331.69;4399966;32;20098;-94
2022/11/29 04:27:28;;;;;;;25.10;10.98;;;;;;;4.28;59.42;100328.31;4426510;32;20102;-94
2022/11/29 04:30:06;;;;;;;29.90;11.10;;;;;;;4.40;59.42;100335.19;4400230;32;20152;-95
2022/11/29 04:32:56;;;;;;;25.35;12.23;;;;;;;4.46;59.42;100335.19;4400707;32;20101;-94
2022/11/29 04:35:29;;;;;;;;;;;;;;;4.36;59.42;100336.91;4413910;32;20094;-95
2022/11/29 04:38:14;;;;;;;31.55;11.85;;;;;;;4.42;59.43;100331.75;4400952;32;20850;-96
2022/11/29 04:41:01;;;;;;;29.60;11.88;;;;;;;4.35;59.43;100332.59;4401192;32;20170;-95
2022/11/29 04:43:39;;;;;;;31.87;13.07;;;;;;;4.29;59.42;100335.19;4418567;32;20099;-96
2022/11/29 04:46:22;;;;;;;29.67;12.15;;;;;;;4.34;59.41;100338.63;4420351;32;20085;-95
2022/11/29 04:49:02;;;;;;;30.77;11.75;;;;;;;4.27;59.42;100339.47;4425858;32;20077;-94
2022/11/29 04:51:38;;;;;;;28.70;12.27;;;;;;;4.42;59.42;100336.06;4384923;32;20118;-94
2022/11/29 04:54:22;;;;;;;32.28;12.05;;;;;;;4.30;59.42;100340.34;4398426;32;20391;-94
2022/11/29 04:56:50;;;;;;;27.40;11.77;;;;;;;4.27;59.42;100352.34;4416795;32;20077;-96
2022/11/29 04:59:25;;;;;;;31.45;12.75;;;;;;;4.36;59.43;100359.25;4404544;32;20085;-96
2022/11/29 05:02:16;;;;;;;33.75;12.40;;;;;;;4.48;59.43;100357.53;4395031;32;20107;-96
2022/11/29 05:05:20;;;;;;;32.00;12.37;;;;;;;4.42;59.43;100354.94;4422644;32;20085;-96
2022/11/29 05:08:10;;;;;;;30.95;11.98;;;;;;;4.30;59.42;100362.66;4390543;32;20656;-95
2022/11/29 05:10:36;;;;;;;33.80;12.98;;;;;;;4.34;59.41;100359.22;4400054;32;20101;-95
2022/11/29 05:13:07;;;;;;;31.30;12.88;;;;;;;4.50;59.44;100361.00;4412604;32;20152;-95
2022/11/29 05:16:24;;;;;;;30.55;12.02;;;;;;;4.40;59.42;100366.13;4413669;32;20062;-96
2022/11/29 05:22:56;;;;;;;32.97;13.10;;;;;;;4.22;59.41;100359.19;4439533;32;20116;-91
2022/11/29 05:25:39;;;;;;;30.15;12.88;;;;;;;4.29;59.42;100360.94;4437548;32;20122;-95
2022/11/29 05:28:26;;;;;;;29.65;12.57;;;;;;;4.29;59.42;100371.25;4400211;32;20101;-95
2022/11/29 05:31:11;;;;;;;37.30;13.65;;;;;;;4.32;59.42;100363.53;4414788;32;20058;-96
2022/11/29 05:34:15;;;;;;;32.67;13.73;;;;;;;4.38;59.42;100371.28;4423780;32;20074;-96
2022/11/29 05:37:22;;;;;;;33.90;13.48;;;;;;;4.30;59.42;100370.41;4438096;32;20081;-93
2022/11/29 05:40:26;;;;;;;34.90;14.00;;;;;;;4.40;59.42;100376.44;4432721;32;20085;-96
2022/11/29 05:43:38;;;;;;;34.65;14.38;;;;;;;4.46;59.42;100374.72;4419797;32;20116;-96
2022/11/29 05:46:30;;;;;;;34.10;14.23;;;;;;;4.41;59.42;100376.44;4437483;32;20097;-96
2022/11/29 05:49:53;;;;;;;29.90;11.80;;;;;;;4.26;59.41;100371.25;4436366;32;20125;-96
2022/11/29 05:52:48;;;;;;;32.83;13.32;;;;;;;4.17;59.41;100384.06;4435633;32;20070;-96
2022/11/29 05:55:53;;;;;;;27.33;12.60;;;;;;;4.10;59.40;100385.78;4421999;32;20090;-96
2022/11/29 05:59:16;;;;;;;30.92;12.95;;;;;;;3.98;59.39;100383.13;4404906;32;20744;-96
2022/11/29 06:02:27;;;;;;;23.83;10.80;;;;;;;4.08;59.40;100391.78;4374001;32;20094;-96
2022/11/29 06:05:32;;;;;;;24.12;11.57;;;;;;;3.95;59.39;100394.28;4415214;32;20076;-96
2022/11/29 06:08:55;;;;;;;33.67;12.07;;;;;;;3.99;59.40;100390.84;4406206;32;20106;-96
2022/11/29 06:11:48;;;;;;;30.45;11.18;;;;;;;3.98;59.41;100389.13;4403233;32;20071;-96
2022/11/29 06:14:54;;;;;;;31.42;12.07;;;;;;;3.99;59.40;100398.59;4398563;32;20865;-96
2022/11/29 06:17:38;;;;;;;30.52;11.77;;;;;;;3.95;59.40;100398.56;4410004;32;20101;-96
2022/11/29 06:20:25;;;;;;;34.50;12.43;;;;;;;4.04;59.40;100402.94;4412404;32;20067;-96
2022/11/29 06:23:16;;;;;;;29.85;11.80;;;;;;;3.97;59.39;100402.87;4408211;32;20071;-95
2022/11/29 06:26:02;;;;;;;32.72;11.32;;;;;;;4.13;59.41;100408.09;4408007;32;20168;-94
2022/11/29 06:31:38;;;;;;;30.67;12.00;;;;;;;4.05;59.41;100410.66;4433607;32;20139;-96
2022/11/29 06:34:19;;;;;;;28.87;12.35;;;;;;;4.21;59.42;100411.56;4401859;32;20105;-95
2022/11/29 06:36:53;;;;;;;33.20;12.23;;;;;;;4.15;59.41;100411.56;4405476;32;20131;-95
2022/11/29 06:39:19;;;;;;;29.95;11.60;;;;;;;4.23;59.41;100404.69;4394344;32;20077;-96
2022/11/29 06:41:45;;;;;;;29.92;12.75;;;;;;;4.22;59.42;100421.03;4403617;32;20127;-95
2022/11/29 06:44:11;;;;;;;33.47;12.60;;;;;;;4.18;59.41;100415.00;4429044;32;20113;-95
2022/11/29 06:46:39;;;;;;;33.38;12.57;;;;;;;4.14;59.41;100417.56;4395231;32;20105;-95
2022/11/29 06:49:25;;;;;;;36.20;12.55;;;;;;;4.31;59.42;100419.38;4440670;32;20057;-96
2022/11/29 06:51:59;;;;;;;30.27;12.63;;;;;;;4.23;59.42;100420.16;4419772;32;20408;-95
2022/11/29 06:54:47;;;;;;;33.28;13.02;;;;;;;4.15;59.41;100417.56;4441048;32;20097;-95
2022/11/29 06:57:21;;;;;;;35.10;13.25;;;;;;;4.14;59.41;100425.28;4416087;32;20109;-95
2022/11/29 07:00:02;;;;;;;32.38;12.57;;;;;;;4.10;59.40;100420.97;4403490;32;20075;-96
2022/11/29 07:02:55;;;;;;;35.72;13.40;;;;;;;4.20;59.42;100428.75;4395253;32;20160;-96
2022/11/29 07:05:28;;;;;;;31.67;11.90;;;;;;;4.23;59.41;100428.75;4426383;32;20106;-96
2022/11/29 07:07:55;;;;;;;36.53;13.55;;;;;;;4.09;59.40;100425.28;4398806;32;20139;-96
2022/11/29 07:10:21;;;;;;;30.65;11.43;;;;;;;4.21;59.41;100429.59;4410937;32;20108;-96
2022/11/29 07:13:06;;;;;;;30.15;11.57;;;;;;;4.27;59.42;100424.50;4403988;32;20097;-96
2022/11/29 07:15:31;;;;;;;34.40;12.73;;;;;;;4.17;59.41;100427.88;4428630;32;20061;-96
2022/11/29 07:18:34;;;;;;;33.67;11.95;;;;;;;4.13;59.41;100419.28;4403323;32;20135;-96
2022/11/29 07:21:14;;;;;;;28.73;12.77;;;;;;;4.05;59.41;100428.69;4428480;32;20823;-96
2022/11/29 07:24:03;;;;;;;28.15;11.70;;;;;;;4.08;59.40;100428.69;4415035;32;20090;-95
2022/11/29 07:26:53;;;;;;;28.95;12.43;;;;;;;4.16;59.41;100424.44;4423995;32;20101;-96
2022/11/29 07:29:25;;;;;;;31.92;13.25;;;;;;;4.26;59.41;100425.34;4415604;32;20117;-95
2022/11/29 07:32:07;;;;;;;31.92;12.57;;;;;;;4.46;59.42;100431.44;4422819;32;20706;-95
2022/11/29 07:34:51;;;;;;;31.40;12.90;;;;;;;4.42;59.43;100432.28;4419314;32;20472;-95
2022/11/29 07:37:33;;;;;;;29.50;11.70;;;;;;;4.29;59.42;100438.25;4427210;32;20105;-95
2022/11/29 07:40:15;;;;;;;40.50;15.60;;;;;;;4.30;59.42;100429.66;4414104;32;20113;-95
2022/11/29 07:42:59;;;;;;;36.22;14.82;;;;;;;4.28;59.42;100432.25;4399165;32;20058;-95
2022/11/29 07:45:32;;;;;;;37.17;14.15;;;;;;;4.35;59.42;100443.44;4398547;32;20486;-96
2022/11/29 07:47:57;;;;;;;31.25;14.02;;;;;;;4.23;59.41;100435.62;4407276;32;20102;-95
2022/11/29 07:50:23;;;;;;;35.63;13.95;;;;;;;4.15;59.41;100437.31;4397935;32;20127;-95
2022/11/29 07:52:49;;;;;;;36.35;14.85;;;;;;;4.40;59.42;100443.44;4402431;32;20139;-96
2022/11/29 07:55:16;;;;;;;31.05;13.38;;;;;;;4.40;59.42;100441.72;4392787;32;20132;-96
2022/11/29 07:57:41;;;;;;;38.25;14.48;;;;;;;4.41;59.42;100445.16;4389690;32;20105;-95
2022/11/29 08:00:07;;;;;;;37.70;15.30;;;;;;;4.33;59.42;100442.56;4401411;32;20125;-95
2022/11/29 08:02:33;;;;;;;39.55;16.08;;;;;;;4.44;59.43;100442.59;4405372;32;20093;-96
2022/11/29 08:04:58;;;;;;;38.53;14.18;;;;;;;4.46;59.42;100446.03;4401281;32;23341;-94
2022/11/29 08:07:23;;;;;;;37.45;14.80;;;;;;;4.60;59.43;100440.09;4409682;32;20144;-95
2022/11/29 08:09:49;;;;;;;40.85;15.35;;;;;;;4.56;59.43;100437.50;4391541;32;20181;-96
2022/11/29 08:12:14;;;;;;;37.75;14.57;;;;;;;4.69;59.44;100440.97;4401213;32;28087;-96
2022/11/29 08:14:40;;;;;;;40.53;15.50;;;;;;;4.63;59.43;100437.50;4401222;32;20242;-95
2022/11/29 08:17:05;;;;;;;35.92;14.85;;;;;;;4.67;59.44;100440.09;4401106;32;20117;-96
2022/11/29 08:19:30;;;;;;;36.10;14.13;;;;;;;4.66;59.44;100444.37;4401880;32;20412;-96
2022/11/29 08:21:56;;;;;;;38.25;15.48;;;;;;;4.67;59.44;100442.66;4413368;32;27261;-96
2022/11/29 08:24:21;;;;;;;32.97;13.82;;;;;;;4.65;59.44;100434.94;4414489;32;20434;-95
2022/11/29 08:26:47;;;;;;;36.58;14.38;;;;;;;4.62;59.43;100437.50;4401351;32;20110;-96
2022/11/29 08:29:12;;;;;;;34.75;14.30;;;;;;;4.74;59.44;100432.41;4401582;32;20100;-96
2022/11/29 08:31:43;;;;;;;37.38;14.77;;;;;;;4.77;59.44;100426.38;4398062;32;24236;-95
2022/11/29 08:34:09;;;;;;;34.03;13.80;;;;;;;4.89;59.45;100431.56;4398159;32;20070;-96
2022/11/29 08:36:35;;;;;;;32.40;12.95;;;;;;;4.88;59.45;100425.53;4401844;32;20755;-95
2022/11/29 08:39:01;;;;;;;34.92;14.13;;;;;;;5.02;59.46;100428.16;4390715;32;20193;-95
2022/11/29 08:41:27;;;;;;;46.55;14.52;;;;;;;4.86;59.44;100431.56;4414351;32;20124;-96
2022/11/29 08:43:52;;;;;;;38.40;14.70;;;;;;;5.04;59.46;100434.16;4401379;32;20121;-96
2022/11/29 08:46:18;;;;;;;35.83;14.30;;;;;;;5.14;59.46;100428.16;4400950;32;20154;-96
2022/11/29 08:48:43;;;;;;;38.60;14.93;;;;;;;5.13;59.46;100434.16;4403382;32;20141;-96
2022/11/29 08:51:08;;;;;;;35.53;13.75;;;;;;;5.11;59.46;100438.47;4392260;32;24136;-95
2022/11/29 08:53:40;;;;;;;68.35;17.23;;;;;;;5.11;59.46;100435.88;4400945;32;22778;-96
2022/11/29 08:56:17;;;;;;;34.25;15.45;;;;;;;5.02;59.46;100437.63;4414523;32;20168;-96
2022/11/29 08:58:43;;;;;;;39.80;15.43;;;;;;;5.15;59.46;100431.59;4413482;32;20127;-96
2022/11/29 09:01:16;;;;;;;38.10;15.30;;;;;;;4.97;59.45;100432.44;4402988;32;20089;-95
2022/11/29 09:06:29;;;;;;;39.70;16.20;;;;;;;5.00;59.45;100434.16;4414858;32;20123;-96
2022/11/29 09:08:55;;;;;;;37.92;15.48;;;;;;;5.04;59.46;100435.88;4401628;32;20096;-96
2022/11/29 09:11:21;;;;;;;46.15;20.02;;;;;;;5.08;59.46;100432.44;4390493;32;20535;-96
2022/11/29 09:13:48;;;;;;;33.28;13.68;;;;;;;5.19;59.47;100429.00;4401275;32;20417;-95
2022/11/29 09:16:16;;;;;;;44.97;20.75;;;;;;;5.25;59.47;100433.34;4401297;32;20179;-95
2022/11/29 09:18:42;;;;;;;35.42;15.00;;;;;;;5.22;59.46;100426.44;4403217;32;20164;-96
2022/11/29 09:21:08;;;;;;;34.75;16.37;;;;;;;5.20;59.47;100427.28;4401208;32;20501;-95
2022/11/29 09:23:34;;;;;;;37.25;14.25;;;;;;;5.04;59.46;100429.00;4401416;32;20169;-96
2022/11/29 09:26:00;;;;;;;34.30;15.68;;;;;;;5.10;59.46;100426.44;4400936;32;20181;-96
2022/11/29 09:28:26;;;;;;;31.17;13.85;;;;;;;4.82;59.45;100424.66;4414238;32;20117;-96
2022/11/29 09:30:51;;;;;;;30.88;13.98;;;;;;;4.94;59.46;100417.78;4401203;32;20098;-95
2022/11/29 09:33:16;;;;;;;36.28;13.68;;;;;;;5.04;59.46;100421.28;4396856;32;225870;-96
2022/11/29 09:35:42;;;;;;;34.50;15.07;;;;;;;5.09;59.46;100422.12;4412618;32;20149;-96
2022/11/29 09:38:10;;;;;;;34.88;14.90;;;;;;;5.00;59.45;100418.69;4400756;32;20457;-96
2022/11/29 09:40:47;;;;;;;31.95;15.32;;;;;;;5.01;59.46;100416.13;4401264;32;20160;-95
2022/11/29 09:43:38;;;;;;;36.65;15.65;;;;;;;5.16;59.46;100425.56;4401737;32;20093;-95
2022/11/29 09:46:14;;;;;;;36.83;16.27;;;;;;;5.26;59.47;100423.87;4412590;32;20066;-95
2022/11/29 09:48:55;;;;;;;36.72;14.32;;;;;;;5.28;59.47;100417.84;4426237;32;20773;-95
2022/11/29 09:51:55;;;;;;;33.53;15.30;;;;;;;5.31;59.47;100411.81;4426591;32;20097;-95
2022/11/29 09:54:27;;;;;;;41.13;19.62;;;;;;;5.43;59.48;100409.22;4413424;32;20094;-95
2022/11/29 09:56:53;;;;;;;31.15;15.02;;;;;;;5.53;59.49;100400.63;4413493;32;20109;-96
2022/11/29 09:59:30;;;;;;;39.15;15.07;;;;;;;5.66;59.49;100402.31;4401204;32;20494;-94
2022/11/29 10:02:03;;;;;;;36.15;16.65;;;;;;;5.54;59.49;100397.16;4395912;32;20098;-96
2022/11/29 10:04:30;;;;;;;39.55;15.68;;;;;;;5.73;59.49;100396.28;4408515;32;20088;-95
2022/11/29 10:07:07;;;;;;;40.80;16.55;;;;;;;5.78;59.50;100389.37;4390552;32;20129;-95
2022/11/29 10:09:36;;;;;;;29.12;13.62;;;;;;;5.82;59.50;100385.06;4403603;32;20496;-96
2022/11/29 10:12:16;;;;;;;39.13;15.17;;;;;;;5.87;59.50;100375.56;4389830;32;20093;-95
2022/11/29 10:14:44;;;;;;;44.67;16.20;;;;;;;5.85;59.50;100380.75;4403658;32;20103;-96
2022/11/29 10:17:35;;;;;;;34.97;14.63;;;;;;;6.02;59.51;100382.47;4388077;32;20137;-96
2022/11/29 10:20:11;;;;;;;37.17;14.90;;;;;;;6.00;59.51;100379.03;4421494;32;20103;-95
2022/11/29 10:23:28;;;;;;;32.55;15.15;;;;;;;5.96;59.51;100379.91;4405518;32;20097;-95
2022/11/29 10:25:54;;;;;;;41.28;15.75;;;;;;;5.74;59.49;100376.47;4412685;32;20097;-95
2022/11/29 10:28:25;;;;;;;39.70;16.25;;;;;;;5.79;59.50;100369.56;4400735;32;20118;-96
2022/11/29 10:30:52;;;;;;;35.97;16.52;;;;;;;5.71;59.50;100372.19;4401043;32;20110;-95
2022/11/29 10:33:26;;;;;;;37.75;16.42;;;;;;;5.84;59.51;100368.69;4413148;32;20119;-96
2022/11/29 10:35:55;;;;;;;36.30;15.77;;;;;;;5.84;59.51;100373.84;4391136;32;20115;-96
2022/11/29 10:38:20;;;;;;;35.97;16.83;;;;;;;5.49;59.48;100378.25;4403185;32;20109;-95
2022/11/29 10:40:47;;;;;;;39.72;16.85;;;;;;;5.44;59.48;100379.94;4411895;32;20418;-96
2022/11/29 10:43:12;;;;;;;36.50;16.00;;;;;;;5.73;59.49;100378.19;4412525;32;20116;-95
2022/11/29 10:45:48;;;;;;;38.72;16.20;;;;;;;5.90;59.50;100379.91;4413248;32;20109;-95
2022/11/29 10:48:18;;;;;;;39.85;16.70;;;;;;;5.90;59.50;100382.47;4406143;32;20402;-96
2022/11/29 10:50:45;;;;;;;32.22;14.43;;;;;;;5.74;59.49;100379.94;4397710;32;20147;-96
2022/11/29 10:53:25;;;;;;;30.17;14.38;;;;;;;5.78;59.50;100379.03;4413031;32;20084;-95
2022/11/29 10:55:57;;;;;;;36.60;15.38;;;;;;;5.55;59.49;100379.09;4413342;32;20129;-96
2022/11/29 10:58:24;;;;;;;34.05;15.85;;;;;;;5.62;59.49;100377.34;4412809;32;20218;-95
2022/11/29 11:01:06;;;;;;;34.33;15.27;;;;;;;5.52;59.48;100378.25;4413060;32;20109;-95
2022/11/29 11:03:34;;;;;;;33.65;15.20;;;;;;;5.79;59.50;100377.31;4410535;32;20128;-95
2022/11/29 11:06:05;;;;;;;34.65;16.35;;;;;;;5.62;59.49;100374.78;4420275;32;20092;-94
2022/11/29 11:08:31;;;;;;;39.13;16.25;;;;;;;5.68;59.50;100374.78;4421208;32;20113;-95
2022/11/29 11:10:57;;;;;;;39.83;16.15;;;;;;;5.70;59.50;100373.06;4406393;32;20101;-95
2022/11/29 11:13:24;;;;;;;38.28;16.55;;;;;;;5.80;59.50;100364.41;4412711;32;20085;-95
2022/11/29 11:15:55;;;;;;;35.50;15.50;;;;;;;5.87;59.50;100362.66;4412885;32;20397;-95
2022/11/29 11:18:23;;;;;;;39.05;16.67;;;;;;;5.87;59.50;100363.50;4411123;32;20110;-95
2022/11/29 11:20:53;;;;;;;35.60;15.65;;;;;;;6.03;59.51;100369.53;4391334;32;20191;-95
2022/11/29 11:23:24;;;;;;;34.33;15.63;;;;;;;6.12;59.51;100366.91;4412848;32;20153;-96
2022/11/29 11:26:09;;;;;;;34.00;14.93;;;;;;;6.11;59.51;100366.91;4418898;32;20166;-94
2022/11/29 11:28:58;;;;;;;32.40;14.77;;;;;;;6.08;59.52;100374.66;4412890;32;20453;-95
2022/11/29 11:31:36;;;;;;;36.47;15.23;;;;;;;5.98;59.50;100370.41;4409533;32;20136;-94
2022/11/29 11:34:37;;;;;;;37.42;14.60;;;;;;;5.93;59.51;100372.16;4398371;32;20094;-94
2022/11/29 11:37:14;;;;;;;37.30;14.30;;;;;;;5.76;59.49;100377.34;4391479;32;20074;-94
2022/11/29 11:39:40;;;;;;;38.47;15.98;;;;;;;5.73;59.49;100367.88;4426993;32;20104;-94
2022/11/29 11:44:56;;;;;;;37.72;15.32;;;;;;;5.67;59.48;100373.03;4418831;32;20166;-94
2022/11/29 11:47:26;;;;;;;36.85;15.50;;;;;;;5.79;59.50;100385.06;4390867;32;23756;-94
2022/11/29 11:50:03;;;;;;;39.50;14.45;;;;;;;5.79;59.50;100378.19;4402173;32;20161;-95
2022/11/29 11:52:38;;;;;;;39.05;15.20;;;;;;;5.81;59.50;100379.03;4426880;32;20121;-95
2022/11/29 11:55:20;;;;;;;32.75;14.93;;;;;;;5.79;59.50;100382.50;4426996;32;20109;-94
2022/11/29 11:58:02;;;;;;;33.20;14.52;;;;;;;5.79;59.49;100378.19;4427325;32;20116;-95
2022/11/29 12:00:46;;;;;;;36.38;15.68;;;;;;;5.85;59.50;100382.47;4414995;32;20078;-95
2022/11/29 12:03:34;;;;;;;38.03;16.25;;;;;;;5.92;59.51;100379.06;4401435;32;20136;-94
2022/11/29 12:06:54;;;;;;;37.17;15.30;;;;;;;5.96;59.51;100374.72;4396652;32;20469;-95
2022/11/29 12:09:33;;;;;;;29.73;13.60;;;;;;;6.10;59.52;100370.34;4383305;32;20122;-95
2022/11/29 12:12:04;;;;;;;37.03;16.48;;;;;;;6.10;59.52;100362.59;4422934;32;20139;-95
2022/11/29 12:15:02;;;;;;;35.47;15.52;;;;;;;6.17;59.52;100366.03;4426976;32;20070;-95